Time;durP1;ratioP1;P1;durP2;ratioP2;P2;SDS_P1;SDS_P2;PMS_P1;PMS_P2;Temp;Humidity;BMP_temperature;BMP_pressure;BME280_temperature;BME280_humidity;BME280_pressure;Samples;Min_cycle;Max_cycle;Signal;HPM_P1;HPM_P2
2022/04/15 00:01:24;;;;;;;10.10;3.33;;;12.50;47.70;;;;;;5079248;28;20188;-81
2022/04/15 00:03:51;;;;;;;14.00;3.60;;;12.50;47.80;;;;;;5079847;28;20074;-80
2022/04/15 00:06:18;;;;;;;7.10;2.90;;;12.50;47.90;;;;;;5063183;28;20040;-82
2022/04/15 00:08:44;;;;;;;6.30;3.17;;;12.50;47.90;;;;;;5086392;28;20177;-83
2022/04/15 00:11:12;;;;;;;6.90;3.63;;;12.50;48.00;;;;;;5083571;28;20032;-83
2022/04/15 00:13:38;;;;;;;8.60;3.65;;;12.50;47.90;;;;;;5071931;28;20051;-83
2022/04/15 00:16:05;;;;;;;9.00;3.28;;;12.50;48.00;;;;;;5038813;28;20068;-82
2022/04/15 00:18:32;;;;;;;6.93;3.40;;;12.40;48.00;;;;;;5049859;28;20577;-82
2022/04/15 00:20:59;;;;;;;6.20;3.30;;;12.50;48.00;;;;;;5048214;28;20040;-84
2022/04/15 00:23:26;;;;;;;7.95;3.33;;;12.40;48.00;;;;;;5066267;28;20032;-82
2022/04/15 00:25:53;;;;;;;9.77;3.72;;;12.40;48.00;;;;;;5073109;28;20487;-82
2022/04/15 00:28:20;;;;;;;11.30;4.15;;;12.40;48.10;;;;;;5069943;28;20025;-82
2022/04/15 00:30:46;;;;;;;7.80;4.20;;;12.50;48.10;;;;;;5075417;28;20036;-82
2022/04/15 00:33:12;;;;;;;10.57;4.15;;;12.40;48.10;;;;;;5056117;28;20119;-82
2022/04/15 00:35:39;;;;;;;10.40;4.35;;;12.40;48.10;;;;;;5084658;28;20521;-82
2022/04/15 00:38:05;;;;;;;7.90;3.90;;;12.40;48.50;;;;;;5066358;28;20038;-82
2022/04/15 00:40:31;;;;;;;11.75;4.15;;;12.40;48.10;;;;;;5061947;28;20040;-82
2022/04/15 00:42:57;;;;;;;9.85;4.10;;;12.40;48.10;;;;;;5051770;28;20103;-81
2022/04/15 00:45:23;;;;;;;10.13;4.13;;;12.40;48.10;;;;;;5076170;28;20490;-82
2022/04/15 00:47:55;;;;;;;8.77;4.15;;;12.40;48.10;;;;;;5076468;28;22180;-81
2022/04/15 00:50:24;;;;;;;7.95;3.70;;;12.40;48.20;;;;;;5073864;28;20040;-82
2022/04/15 00:52:52;;;;;;;8.85;3.92;;;12.30;48.20;;;;;;5075890;28;21476;-81
2022/04/15 00:55:21;;;;;;;8.82;4.10;;;12.40;48.30;;;;;;5080422;28;20085;-83
2022/04/15 00:58:06;;;;;;;8.88;3.78;;;12.30;48.20;;;;;;5084766;28;20048;-82
2022/04/15 01:00:34;;;;;;;11.70;3.90;;;12.30;48.20;;;;;;5085522;28;20146;-82
2022/04/15 01:03:02;;;;;;;4.88;3.05;;;12.30;48.30;;;;;;5081078;28;20105;-83
2022/04/15 01:05:29;;;;;;;9.68;3.88;;;12.30;48.30;;;;;;5085094;28;20036;-81
2022/04/15 01:07:56;;;;;;;7.32;3.45;;;12.30;48.30;;;;;;5074318;28;20039;-82
2022/04/15 01:10:24;;;;;;;6.93;3.35;;;12.30;48.30;;;;;;5075659;28;20495;-81
2022/04/15 01:12:54;;;;;;;6.45;3.30;;;12.30;48.30;;;;;;5046822;28;20036;-82
2022/04/15 01:15:29;;;;;;;6.05;3.28;;;12.30;48.40;;;;;;5084872;28;20031;-81
2022/04/15 01:17:55;;;;;;;8.87;3.10;;;12.30;48.40;;;;;;5076311;28;20036;-82
2022/04/15 01:20:22;;;;;;;6.95;3.78;;;12.30;48.40;;;;;;5083386;28;20275;-83
2022/04/15 01:22:56;;;;;;;8.77;3.10;;;12.30;48.40;;;;;;5079181;28;20062;-81
2022/04/15 01:25:22;;;;;;;6.25;2.67;;;12.30;48.50;;;;;;5079285;28;20126;-82
2022/04/15 01:27:49;;;;;;;7.82;2.83;;;12.30;48.50;;;;;;5082891;28;20170;-83
2022/04/15 01:30:20;;;;;;;7.75;3.25;;;12.20;48.40;;;;;;5075433;28;20031;-84
2022/04/15 01:32:47;;;;;;;7.30;3.33;;;12.30;48.40;;;;;;5085854;28;20099;-82
2022/04/15 01:35:14;;;;;;;5.90;3.15;;;12.30;48.40;;;;;;5085195;28;20134;-83
2022/04/15 01:37:41;;;;;;;5.95;2.75;;;12.20;48.30;;;;;;5079457;28;20032;-83
2022/04/15 01:40:09;;;;;;;8.23;3.58;;;12.30;48.30;;;;;;5083578;28;20060;-82
2022/04/15 01:42:37;;;;;;;9.60;3.20;;;12.30;48.30;;;;;;5067628;28;20035;-84
2022/04/15 01:45:05;;;;;;;11.20;3.53;;;12.30;48.20;;;;;;5085959;28;20051;-83
2022/04/15 01:47:31;;;;;;;7.75;3.40;;;12.20;48.20;;;;;;5085455;28;20042;-82
2022/04/15 01:49:57;;;;;;;8.55;3.30;;;12.20;48.20;;;;;;5070914;28;20036;-82
2022/04/15 01:52:23;;;;;;;7.30;2.95;;;12.20;48.20;;;;;;5068684;28;20514;-82
2022/04/15 01:54:49;;;;;;;5.38;2.95;;;12.20;48.20;;;;;;5066768;28;20118;-82
2022/04/15 01:57:16;;;;;;;5.82;3.47;;;12.20;48.30;;;;;;5067972;28;20029;-81
2022/04/15 01:59:42;;;;;;;8.38;3.63;;;12.20;48.30;;;;;;5068000;28;20408;-83
2022/04/15 02:02:09;;;;;;;8.13;3.60;;;12.20;48.30;;;;;;5068239;28;20028;-82
2022/04/15 02:04:36;;;;;;;7.80;3.10;;;12.20;48.40;;;;;;5066708;28;20064;-82
2022/04/15 02:07:03;;;;;;;10.35;4.28;;;12.20;48.40;;;;;;5067357;28;20069;-83
2022/04/15 02:09:29;;;;;;;7.80;3.67;;;12.20;48.40;;;;;;5051243;28;20028;-81
2022/04/15 02:11:55;;;;;;;7.78;3.85;;;12.20;48.40;;;;;;5071398;28;20032;-82
2022/04/15 02:14:22;;;;;;;10.02;4.65;;;12.20;48.50;;;;;;5087501;28;20028;-82
2022/04/15 02:16:53;;;;;;;12.48;5.07;;;12.20;48.50;;;;;;5087503;28;20119;-85
2022/04/15 02:19:23;;;;;;;12.68;4.57;;;12.20;48.40;;;;;;5053347;28;20024;-85
2022/04/15 02:21:50;;;;;;;13.77;5.43;;;12.20;48.50;;;;;;5082637;28;20048;-84
2022/04/15 02:24:16;;;;;;;17.52;6.10;;;12.20;48.50;;;;;;5077287;28;20043;-84
2022/04/15 02:26:42;;;;;;;10.60;5.38;;;12.20;48.50;;;;;;5068938;28;20044;-85
2022/04/15 02:29:09;;;;;;;12.13;5.18;;;12.20;48.60;;;;;;5087535;28;20028;-85
2022/04/15 02:31:35;;;;;;;11.68;5.95;;;12.20;48.60;;;;;;5072660;28;20040;-84
2022/04/15 02:34:01;;;;;;;14.00;6.03;;;12.20;48.60;;;;;;5092434;28;20040;-82
2022/04/15 02:36:27;;;;;;;13.63;6.22;;;12.20;48.60;;;;;;5091910;28;20101;-82
2022/04/15 02:38:53;;;;;;;11.80;6.22;;;12.20;48.60;;;;;;5069790;28;20043;-83
2022/04/15 02:41:19;;;;;;;16.20;6.43;;;12.20;48.60;;;;;;5087578;28;20039;-83
2022/04/15 02:43:46;;;;;;;15.07;6.18;;;12.20;48.50;;;;;;5076732;28;20055;-84
2022/04/15 02:46:13;;;;;;;16.48;6.20;;;12.20;48.40;;;;;;5081474;28;20122;-85
2022/04/15 02:48:39;;;;;;;16.02;7.15;;;12.20;48.40;;;;;;5084919;28;20059;-84
2022/04/15 02:51:05;;;;;;;15.93;7.00;;;12.20;48.30;;;;;;5064312;28;20059;-84
2022/04/15 02:53:33;;;;;;;13.07;6.18;;;12.20;48.30;;;;;;5069904;28;20122;-82
2022/04/15 02:55:59;;;;;;;15.25;7.10;;;12.20;48.30;;;;;;5073010;28;20039;-83
2022/04/15 02:58:25;;;;;;;12.85;7.00;;;12.20;48.30;;;;;;5046024;28;20032;-84
2022/04/15 03:00:51;;;;;;;13.43;6.40;;;12.20;48.20;;;;;;5057132;28;20040;-84
2022/04/15 03:03:17;;;;;;;11.98;6.20;;;12.20;48.20;;;;;;5080107;28;20027;-83
2022/04/15 03:05:43;;;;;;;13.63;5.97;;;12.20;48.80;;;;;;5077007;28;20371;-83
2022/04/15 03:08:09;;;;;;;13.70;6.57;;;12.20;48.10;;;;;;5080257;28;20048;-83
2022/04/15 03:10:36;;;;;;;16.38;6.30;;;12.30;48.10;;;;;;5081192;28;20565;-84
2022/04/15 03:13:02;;;;;;;12.55;6.15;;;12.20;48.10;;;;;;5085938;28;20490;-84
2022/04/15 03:15:28;;;;;;;10.95;6.03;;;12.20;48.00;;;;;;5077604;28;20118;-83
2022/04/15 03:17:54;;;;;;;12.43;6.07;;;12.30;48.00;;;;;;5054788;28;20375;-85
2022/04/15 03:20:21;;;;;;;12.80;5.88;;;12.30;48.00;;;;;;5052152;28;20029;-83
2022/04/15 03:22:47;;;;;;;12.52;5.95;;;12.30;48.00;;;;;;5080898;28;20495;-83
2022/04/15 03:25:17;;;;;;;10.02;5.50;;;12.30;47.90;;;;;;5099994;28;20036;-83
2022/04/15 03:27:44;;;;;;;13.82;5.15;;;12.30;47.90;;;;;;5058445;28;20130;-81
2022/04/15 03:30:14;;;;;;;11.18;5.45;;;12.30;48.50;;;;;;5054037;28;20035;-82
2022/04/15 03:32:49;;;;;;;11.15;5.18;;;12.30;47.90;;;;;;5067865;28;20078;-83
2022/04/15 03:35:20;;;;;;;13.70;5.00;;;12.40;47.90;;;;;;5084763;28;20025;-83
2022/04/15 03:37:52;;;;;;;10.02;5.15;;;12.40;48.00;;;;;;5060198;28;20033;-83
2022/04/15 03:40:19;;;;;;;10.60;4.30;;;12.40;48.10;;;;;;5054940;28;20036;-81
2022/04/15 03:42:47;;;;;;;11.65;4.93;;;12.40;48.10;;;;;;5079340;28;20505;-82
2022/04/15 03:45:14;;;;;;;11.98;4.90;;;12.40;48.10;;;;;;5087117;28;20028;-81
2022/04/15 03:47:43;;;;;;;12.63;5.30;;;12.40;48.10;;;;;;5061402;28;20059;-84
2022/04/15 03:50:10;;;;;;;11.40;4.70;;;12.40;48.10;;;;;;5082834;28;20032;-83
2022/04/15 03:52:42;;;;;;;12.73;4.82;;;12.40;48.20;;;;;;5079406;28;20044;-85
2022/04/15 03:55:18;;;;;;;9.05;4.65;;;12.50;48.20;;;;;;5059851;28;20074;-85
2022/04/15 03:57:45;;;;;;;12.00;4.90;;;12.50;48.30;;;;;;5072260;28;20445;-85
2022/04/15 04:00:13;;;;;;;16.10;5.00;;;12.50;48.40;;;;;;5066527;28;20134;-85
2022/04/15 04:02:43;;;;;;;12.13;5.05;;;12.50;48.30;;;;;;5071404;28;20032;-86
2022/04/15 04:05:09;;;;;;;13.48;5.60;;;12.50;48.40;;;;;;5081965;28;20036;-87
2022/04/15 04:07:36;;;;;;;10.90;5.07;;;12.60;48.40;;;;;;5066992;28;20036;-86
2022/04/15 04:10:02;;;;;;;10.60;5.30;;;12.60;48.40;;;;;;5048031;28;20032;-87
2022/04/15 04:12:33;;;;;;;10.15;5.53;;;12.70;48.40;;;;;;5084252;28;20525;-86
2022/04/15 04:15:01;;;;;;;9.65;5.10;;;12.70;48.30;;;;;;5081369;28;20020;-89
2022/04/15 04:17:26;;;;;;;12.25;5.05;;;12.80;48.30;;;;;;5043994;28;20036;-88
2022/04/15 04:19:52;;;;;;;15.27;5.97;;;12.80;48.20;;;;;;5076684;28;20028;-85
2022/04/15 04:22:18;;;;;;;14.77;5.95;;;12.90;48.20;;;;;;5072818;28;20032;-86
2022/04/15 04:24:44;;;;;;;14.13;5.38;;;12.90;48.10;;;;;;5045475;28;20088;-85
2022/04/15 04:27:10;;;;;;;10.32;5.47;;;12.90;48.10;;;;;;5088328;28;20059;-85
2022/04/15 04:29:36;;;;;;;10.70;6.10;;;12.90;48.10;;;;;;5080955;28;20032;-88
2022/04/15 04:32:03;;;;;;;10.70;5.93;;;13.00;48.10;;;;;;5064211;28;20046;-89
2022/04/15 04:34:29;;;;;;;14.13;6.13;;;13.00;48.10;;;;;;5081203;28;20039;-90
2022/04/15 04:36:55;;;;;;;11.40;5.88;;;13.00;48.10;;;;;;5076946;28;20062;-89
2022/04/15 04:39:25;;;;;;;10.32;5.35;;;13.00;48.10;;;;;;5058743;28;20031;-87
2022/04/15 04:41:52;;;;;;;15.02;5.72;;;13.00;48.10;;;;;;5043136;28;20039;-86
2022/04/15 04:44:18;;;;;;;12.50;5.90;;;13.00;48.10;;;;;;5073796;28;20521;-86
2022/04/15 04:46:44;;;;;;;11.10;5.85;;;13.00;48.10;;;;;;5070412;28;20028;-85
2022/04/15 04:49:10;;;;;;;13.50;5.60;;;13.10;48.10;;;;;;5077677;28;20587;-84
2022/04/15 04:51:36;;;;;;;13.00;6.07;;;13.10;48.10;;;;;;5075859;28;20050;-81
2022/04/15 04:54:02;;;;;;;16.30;6.25;;;13.00;48.00;;;;;;5076351;28;20048;-81
2022/04/15 04:56:29;;;;;;;10.45;5.53;;;13.10;48.00;;;;;;5085191;28;20367;-80
2022/04/15 04:58:55;;;;;;;15.07;6.18;;;13.10;48.00;;;;;;5079326;28;20040;-83
2022/04/15 05:01:21;;;;;;;11.20;5.57;;;13.10;48.00;;;;;;5050758;28;20056;-83
2022/04/15 05:03:47;;;;;;;11.23;5.68;;;13.10;48.00;;;;;;5063940;28;20028;-83
2022/04/15 05:06:31;;;;;;;12.90;5.38;;;13.10;48.00;;;;;;5065161;28;20059;-83
2022/04/15 05:08:57;;;;;;;14.90;5.30;;;13.10;48.00;;;;;;5059415;28;20475;-83
2022/04/15 05:11:23;;;;;;;14.80;6.00;;;13.10;48.10;;;;;;5082939;28;20032;-81
2022/04/15 05:13:50;;;;;;;12.13;5.60;;;13.20;48.10;;;;;;5064186;28;20554;-81
2022/04/15 05:16:16;;;;;;;12.70;5.63;;;13.20;48.10;;;;;;5074259;28;20060;-81
2022/04/15 05:18:43;;;;;;;14.45;5.80;;;13.20;48.00;;;;;;5076514;28;20040;-80
2022/04/15 05:21:09;;;;;;;14.93;5.50;;;13.30;48.20;;;;;;5061601;28;20032;-83
2022/04/15 05:23:35;;;;;;;12.05;4.93;;;13.30;48.10;;;;;;5082514;28;20123;-78
2022/04/15 05:26:01;;;;;;;20.30;5.85;;;13.30;48.10;;;;;;5078672;28;20029;-79
2022/04/15 05:28:27;;;;;;;11.15;5.25;;;13.30;48.10;;;;;;5081563;28;20123;-78
2022/04/15 05:30:53;;;;;;;14.23;4.70;;;13.30;48.60;;;;;;5071402;28;20031;-77
2022/04/15 05:33:19;;;;;;;15.43;5.05;;;13.40;48.90;;;;;;5080045;28;20036;-77
2022/04/15 05:35:44;;;;;;;12.65;4.68;;;13.40;49.20;;;;;;5080078;28;20028;-78
2022/04/15 05:38:10;;;;;;;8.88;4.53;;;13.50;49.30;;;;;;5080782;28;22066;-78
2022/04/15 05:40:36;;;;;;;10.23;4.38;;;13.60;49.50;;;;;;5080135;28;20028;-78
2022/04/15 05:43:02;;;;;;;11.77;4.57;;;13.70;49.40;;;;;;5079948;28;20036;-78
2022/04/15 05:45:28;;;;;;;14.13;4.55;;;13.80;49.50;;;;;;5079891;28;20039;-78
2022/04/15 05:47:57;;;;;;;13.32;4.07;;;13.80;49.30;;;;;;5089750;28;20067;-78
2022/04/15 05:50:24;;;;;;;12.65;4.47;;;13.90;49.30;;;;;;5066565;28;20043;-83
2022/04/15 05:52:50;;;;;;;10.88;4.00;;;14.10;49.40;;;;;;5079815;28;20033;-84
2022/04/15 05:55:16;;;;;;;15.48;4.10;;;14.20;49.60;;;;;;5083561;28;20130;-85
2022/04/15 05:57:41;;;;;;;13.63;4.28;;;14.20;49.30;;;;;;5063207;28;20043;-84
2022/04/15 06:00:09;;;;;;;11.93;4.28;;;14.30;48.40;;;;;;5072660;28;20036;-85
2022/04/15 06:02:37;;;;;;;14.60;4.18;;;14.40;47.80;;;;;;5087543;28;20036;-85
2022/04/15 06:05:04;;;;;;;15.18;4.13;;;14.40;47.70;;;;;;5081277;28;20033;-81
2022/04/15 06:07:30;;;;;;;9.18;4.10;;;14.50;47.70;;;;;;5047342;28;20579;-88
2022/04/15 06:09:56;;;;;;;9.55;3.80;;;14.60;47.70;;;;;;5081918;28;20497;-81
2022/04/15 06:12:54;;;;;;;10.80;3.30;;;14.60;47.20;;;;;;5069852;28;20024;-81
2022/04/15 06:15:17;;;;;;;9.52;4.05;;;14.80;47.00;;;;;;5069488;28;20029;-82
2022/04/15 06:17:43;;;;;;;11.98;3.17;;;14.90;46.60;;;;;;5075482;28;20036;-83
2022/04/15 06:20:10;;;;;;;11.38;2.97;;;15.00;46.60;;;;;;5076521;28;20032;-83
2022/04/15 06:22:36;;;;;;;11.60;3.33;;;15.10;46.50;;;;;;5061381;28;20446;-83
2022/04/15 06:25:02;;;;;;;10.18;3.40;;;15.30;46.40;;;;;;5086368;28;20128;-84
2022/04/15 06:27:28;;;;;;;7.05;2.58;;;15.40;45.80;;;;;;5085060;28;20444;-83
2022/04/15 06:29:54;;;;;;;11.25;2.85;;;15.60;45.90;;;;;;5057569;28;20503;-84
2022/04/15 06:32:20;;;;;;;11.27;3.10;;;15.70;45.80;;;;;;5079123;28;20123;-83
2022/04/15 06:34:46;;;;;;;13.77;3.20;;;15.90;45.60;;;;;;5071795;28;20039;-83
2022/04/15 06:37:12;;;;;;;11.45;2.58;;;16.00;45.00;;;;;;5080640;28;20123;-84
2022/04/15 06:39:38;;;;;;;9.70;2.95;;;16.20;45.20;;;;;;5083294;28;20472;-83
2022/04/15 06:42:04;;;;;;;11.95;2.55;;;16.30;45.00;;;;;;5069720;28;20040;-82
2022/04/15 06:44:30;;;;;;;7.50;3.00;;;16.50;44.50;;;;;;5087146;28;20032;-82
2022/04/15 06:46:56;;;;;;;12.73;3.10;;;16.60;44.70;;;;;;5071298;28;20044;-83
2022/04/15 06:49:22;;;;;;;14.02;3.55;;;16.80;43.90;;;;;;5073294;28;20029;-84
2022/04/15 06:51:48;;;;;;;9.88;3.47;;;16.90;44.50;;;;;;5085829;28;20410;-83
2022/04/15 06:54:14;;;;;;;10.02;3.17;;;17.00;43.50;;;;;;5078840;28;20542;-81
2022/04/15 06:56:40;;;;;;;7.43;2.60;;;17.10;43.50;;;;;;5056400;28;20036;-82
2022/04/15 06:59:07;;;;;;;9.02;2.38;;;17.20;43.10;;;;;;5087116;28;20044;-82
2022/04/15 07:01:35;;;;;;;9.30;2.22;;;17.30;42.90;;;;;;5078119;28;20111;-82
2022/04/15 07:04:02;;;;;;;14.27;1.98;;;17.40;42.20;;;;;;5055165;28;20040;-82
2022/04/15 07:06:29;;;;;;;14.07;2.33;;;17.50;41.80;;;;;;5060137;28;20039;-82
2022/04/15 07:08:54;;;;;;;8.45;2.10;;;17.50;42.10;;;;;;5091398;28;20043;-82
2022/04/15 07:11:20;;;;;;;11.55;2.10;;;17.60;41.70;;;;;;5076033;28;20033;-83
2022/04/15 07:13:47;;;;;;;10.48;2.42;;;17.60;41.70;;;;;;5058398;28;20530;-82
2022/04/15 07:16:14;;;;;;;11.15;2.42;;;17.70;41.60;;;;;;5055558;28;20036;-81
2022/04/15 07:18:40;;;;;;;10.55;2.25;;;17.80;42.30;;;;;;5072348;28;20040;-82
2022/04/15 07:21:06;;;;;;;9.05;2.40;;;17.90;42.90;;;;;;5073504;28;20032;-84
2022/04/15 07:23:31;;;;;;;5.40;1.65;;;17.90;42.50;;;;;;5051423;28;20086;-82
2022/04/15 07:25:57;;;;;;;11.40;1.90;;;17.90;41.50;;;;;;5066955;28;20444;-83
2022/04/15 07:28:23;;;;;;;6.32;1.63;;;17.90;41.20;;;;;;5066236;28;20138;-79
2022/04/15 07:30:49;;;;;;;9.27;2.20;;;17.90;40.70;;;;;;5066399;28;20036;-80
2022/04/15 07:33:17;;;;;;;5.20;1.77;;;17.90;40.50;;;;;;5066145;28;20028;-80
2022/04/15 07:35:43;;;;;;;14.40;2.15;;;17.90;40.30;;;;;;5051118;28;20422;-80
2022/04/15 07:38:10;;;;;;;5.45;1.98;;;17.90;39.40;;;;;;5067691;28;20036;-79
2022/04/15 07:40:36;;;;;;;5.65;1.17;;;17.90;39.40;;;;;;5065901;28;20530;-78
2022/04/15 07:43:02;;;;;;;7.78;1.33;;;18.00;38.90;;;;;;5067507;28;20033;-82
2022/04/15 07:45:28;;;;;;;7.18;1.30;;;18.00;38.40;;;;;;5066352;28;20029;-87
2022/04/15 07:47:54;;;;;;;4.30;1.30;;;17.90;38.30;;;;;;5049149;28;20044;-87
2022/04/15 07:50:23;;;;;;;4.18;1.67;;;17.90;39.10;;;;;;5070497;28;20044;-87
2022/04/15 07:52:50;;;;;;;6.90;1.48;;;17.90;39.60;;;;;;5049770;28;20032;-79
2022/04/15 07:55:16;;;;;;;6.88;1.60;;;17.80;39.60;;;;;;5048120;28;20411;-86
2022/04/15 07:57:43;;;;;;;6.32;1.52;;;17.70;38.80;;;;;;5066387;28;20047;-80
2022/04/15 08:00:10;;;;;;;4.65;1.33;;;17.70;39.10;;;;;;5048874;28;20029;-80
2022/04/15 08:02:39;;;;;;;2.88;1.40;;;17.60;38.60;;;;;;5067267;28;20048;-77
2022/04/15 08:05:05;;;;;;;5.57;1.65;;;17.50;40.40;;;;;;5066189;28;20044;-80
2022/04/15 08:07:31;;;;;;;7.15;1.77;;;17.50;39.50;;;;;;5066533;28;20036;-79
2022/04/15 08:09:57;;;;;;;8.48;2.00;;;17.40;38.70;;;;;;5029881;28;20029;-80
2022/04/15 08:12:23;;;;;;;5.65;1.42;;;17.40;39.40;;;;;;5063239;28;20083;-80
2022/04/15 08:14:48;;;;;;;7.00;1.80;;;17.40;40.70;;;;;;5046099;28;20380;-80
2022/04/15 08:17:15;;;;;;;10.07;2.05;;;17.40;41.90;;;;;;5064803;28;20093;-80
2022/04/15 08:19:41;;;;;;;5.20;1.63;;;17.40;41.90;;;;;;5065931;28;20515;-79
2022/04/15 08:22:09;;;;;;;3.20;1.50;;;17.40;43.40;;;;;;5048934;28;20511;-80
2022/04/15 08:24:39;;;;;;;3.42;1.30;;;17.40;44.60;;;;;;5065896;28;20068;-79
2022/04/15 08:27:05;;;;;;;5.35;1.75;;;17.40;45.50;;;;;;5065639;28;20024;-80
2022/04/15 08:29:32;;;;;;;7.07;1.70;;;17.40;44.10;;;;;;5066922;28;20613;-79
2022/04/15 08:31:58;;;;;;;4.93;1.70;;;17.40;40.70;;;;;;5065253;28;20395;-80
2022/04/15 08:34:24;;;;;;;3.92;1.63;;;17.30;40.00;;;;;;5075306;28;20036;-80
2022/04/15 08:36:50;;;;;;;4.30;1.52;;;17.30;40.00;;;;;;5064133;28;20037;-81
2022/04/15 08:39:16;;;;;;;10.07;1.90;;;17.30;39.00;;;;;;5075459;28;20043;-81
2022/04/15 08:41:43;;;;;;;4.32;1.50;;;17.20;39.20;;;;;;5064555;28;20089;-79
2022/04/15 08:44:09;;;;;;;5.15;1.42;;;17.10;38.80;;;;;;5064448;28;20032;-80
2022/04/15 08:46:36;;;;;;;2.78;1.35;;;17.10;39.40;;;;;;5064182;28;20548;-80
2022/04/15 08:49:02;;;;;;;7.78;1.50;;;17.20;40.30;;;;;;5048610;28;20028;-80
2022/04/15 08:51:29;;;;;;;5.40;1.38;;;17.20;41.60;;;;;;5064262;28;20033;-79
2022/04/15 08:53:56;;;;;;;1.73;1.10;;;17.20;43.30;;;;;;5065011;28;20040;-80
2022/04/15 08:56:23;;;;;;;4.07;1.30;;;17.20;44.50;;;;;;5064518;28;20029;-79
2022/04/15 08:58:49;;;;;;;4.72;1.20;;;17.30;44.70;;;;;;5069040;28;20044;-79
2022/04/15 09:01:16;;;;;;;7.53;1.70;;;17.30;44.70;;;;;;5069044;28;20051;-79
2022/04/15 09:03:42;;;;;;;3.90;1.13;;;17.30;45.00;;;;;;5067080;28;20522;-79
2022/04/15 09:06:16;;;;;;;2.88;1.42;;;17.30;45.50;;;;;;5069855;28;20463;-79
2022/04/15 09:09:00;;;;;;;3.50;1.42;;;17.30;46.00;;;;;;5069538;28;20033;-80
2022/04/15 09:11:34;;;;;;;3.53;1.20;;;17.30;46.40;;;;;;5069099;28;20189;-80
2022/04/15 09:14:10;;;;;;;4.32;1.00;;;17.30;46.60;;;;;;5069585;28;20380;-79
2022/04/15 09:16:42;;;;;;;3.03;1.40;;;17.30;46.90;;;;;;5068357;28;20032;-79
2022/04/15 09:19:09;;;;;;;3.72;1.30;;;17.30;47.20;;;;;;5068169;28;20515;-80
2022/04/15 09:21:37;;;;;;;3.17;1.00;;;17.40;47.40;;;;;;5068838;28;20036;-80
2022/04/15 09:24:03;;;;;;;4.50;1.00;;;17.40;47.60;;;;;;5067801;28;20025;-80
2022/04/15 09:26:29;;;;;;;2.85;1.20;;;17.40;47.60;;;;;;5068145;28;20127;-81
2022/04/15 09:28:56;;;;;;;3.17;1.33;;;17.40;44.10;;;;;;5069422;28;20047;-80
2022/04/15 09:31:23;;;;;;;4.38;1.27;;;17.40;42.30;;;;;;5069223;28;20032;-79
2022/04/15 09:33:57;;;;;;;7.82;1.30;;;17.40;42.00;;;;;;5068800;28;20123;-79
2022/04/15 09:36:28;;;;;;;6.13;1.30;;;17.40;41.50;;;;;;5069567;28;20040;-80
2022/04/15 09:39:11;;;;;;;6.15;1.45;;;17.40;41.20;;;;;;5068867;28;20120;-79
2022/04/15 09:41:51;;;;;;;3.22;1.75;;;17.40;40.60;;;;;;5070317;28;20077;-80
2022/04/15 09:44:19;;;;;;;7.97;1.23;;;17.40;41.30;;;;;;5096041;28;20040;-80
2022/04/15 09:46:46;;;;;;;2.97;1.35;;;17.40;43.20;;;;;;5084176;28;20112;-80
2022/04/15 09:49:12;;;;;;;2.58;1.10;;;17.40;44.70;;;;;;5084690;28;20033;-80
2022/04/15 09:51:45;;;;;;;6.03;1.20;;;17.40;45.20;;;;;;5083361;28;20036;-80
2022/04/15 09:54:24;;;;;;;2.90;1.23;;;17.40;42.70;;;;;;5106058;28;20439;-79
2022/04/15 09:56:52;;;;;;;3.42;1.33;;;17.20;40.90;;;;;;5069007;28;20489;-79
2022/04/15 09:59:21;;;;;;;5.32;1.40;;;17.20;40.70;;;;;;5064966;28;20040;-80
2022/04/15 10:01:52;;;;;;;3.50;1.20;;;17.30;41.70;;;;;;5068823;28;20066;-79
2022/04/15 10:04:20;;;;;;;2.75;0.90;;;17.30;43.10;;;;;;5068087;28;20044;-80
2022/04/15 10:06:47;;;;;;;2.67;1.10;;;17.40;44.50;;;;;;5066304;28;20036;-80
2022/04/15 10:09:13;;;;;;;1.27;1.13;;;17.40;44.20;;;;;;5067842;28;20024;-79
2022/04/15 10:11:44;;;;;;;8.90;1.58;;;17.40;44.40;;;;;;5065104;28;20124;-79
2022/04/15 10:14:11;;;;;;;7.22;1.70;;;17.40;42.30;;;;;;5066692;28;20234;-79
2022/04/15 10:16:39;;;;;;;2.40;1.60;;;17.30;41.50;;;;;;5067511;28;20442;-80
2022/04/15 10:19:06;;;;;;;4.10;1.52;;;17.20;41.30;;;;;;5066374;28;20093;-80
2022/04/15 10:21:43;;;;;;;4.53;1.90;;;17.20;41.60;;;;;;5066367;28;20052;-80
2022/04/15 10:24:10;;;;;;;4.80;1.85;;;17.20;41.20;;;;;;5068862;28;20112;-79
2022/04/15 10:26:41;;;;;;;1.73;1.30;;;17.20;41.30;;;;;;5066376;28;20048;-79
2022/04/15 10:29:09;;;;;;;4.13;1.35;;;17.10;41.50;;;;;;5062878;28;20068;-80
2022/04/15 10:31:41;;;;;;;5.25;1.60;;;17.10;41.40;;;;;;5065401;28;20033;-79
2022/04/15 10:34:13;;;;;;;7.20;1.73;;;17.10;41.50;;;;;;5050207;28;20036;-80
2022/04/15 10:36:59;;;;;;;2.90;1.30;;;17.00;41.50;;;;;;5067286;28;20044;-80
2022/04/15 10:39:26;;;;;;;4.85;1.40;;;17.10;42.20;;;;;;5064439;28;20028;-80
2022/04/15 10:41:55;;;;;;;4.03;1.48;;;17.10;42.80;;;;;;5065720;28;20028;-81
2022/04/15 10:44:38;;;;;;;2.92;1.30;;;17.20;44.00;;;;;;5066286;28;20025;-80
2022/04/15 10:47:28;;;;;;;3.65;1.50;;;17.20;45.00;;;;;;5067593;28;20040;-80
2022/04/15 10:50:04;;;;;;;7.35;1.85;;;17.30;44.00;;;;;;5066650;28;20040;-79
2022/04/15 10:52:34;;;;;;;6.03;1.75;;;17.20;42.50;;;;;;5066409;28;20039;-81
2022/04/15 10:55:08;;;;;;;9.23;1.35;;;17.20;42.90;;;;;;5062670;28;20071;-80
2022/04/15 10:57:36;;;;;;;7.30;1.08;;;17.20;44.20;;;;;;5062299;28;20453;-80
2022/04/15 11:02:54;;;;;;;6.32;1.38;;;17.30;46.50;;;;;;5064434;28;20032;-79
2022/04/15 11:05:52;;;;;;;5.13;1.50;;;17.30;45.10;;;;;;5048915;28;20029;-78
2022/04/15 11:08:22;;;;;;;2.55;1.40;;;17.30;44.10;;;;;;5065468;28;20055;-80
2022/04/15 11:11:03;;;;;;;7.95;2.13;;;17.30;43.60;;;;;;5065953;28;20036;-78
2022/04/15 11:13:40;;;;;;;4.55;1.15;;;17.30;43.50;;;;;;5061544;28;20094;-79
2022/04/15 11:16:06;;;;;;;4.13;1.33;;;17.30;43.40;;;;;;5061760;28;20411;-78
2022/04/15 11:18:52;;;;;;;4.63;1.60;;;17.20;43.40;;;;;;5064830;28;20043;-79
2022/04/15 11:21:35;;;;;;;;;;;17.20;43.30;;;;;;5066196;28;20051;-78
2022/04/15 11:24:12;;;;;;;4.85;1.70;;;17.10;43.40;;;;;;5049458;28;19912;-78
2022/04/15 11:26:39;;;;;;;7.10;1.13;;;17.10;43.50;;;;;;5045286;28;20029;-79
2022/04/15 11:29:07;;;;;;;3.00;1.15;;;17.10;43.60;;;;;;5045793;28;20078;-78
2022/04/15 11:31:38;;;;;;;6.53;1.23;;;17.10;44.10;;;;;;5048213;28;20036;-78
2022/04/15 11:34:07;;;;;;;2.47;1.17;;;17.00;44.30;;;;;;5063672;28;20534;-79
2022/04/15 11:36:45;;;;;;;5.20;1.27;;;17.10;44.70;;;;;;5066014;28;20422;-78
2022/04/15 11:39:13;;;;;;;4.60;1.35;;;17.10;44.70;;;;;;5061797;28;20032;-78
2022/04/15 11:41:46;;;;;;;4.70;1.58;;;17.00;44.60;;;;;;5067190;28;20476;-78
2022/04/15 11:44:13;;;;;;;6.10;1.60;;;17.00;44.50;;;;;;5047837;28;20568;-78
2022/04/15 11:46:41;;;;;;;8.98;1.35;;;17.00;44.50;;;;;;5041604;28;20032;-78
2022/04/15 11:49:16;;;;;;;3.10;1.52;;;16.90;44.50;;;;;;5062051;28;20511;-79
2022/04/15 11:51:48;;;;;;;5.72;1.60;;;16.90;44.50;;;;;;5064788;28;20039;-78
2022/04/15 11:54:14;;;;;;;3.70;1.10;;;16.80;44.40;;;;;;5062137;28;20119;-79
2022/04/15 11:56:42;;;;;;;3.42;1.60;;;16.80;44.60;;;;;;5066477;28;20086;-78
2022/04/15 11:59:10;;;;;;;4.75;1.23;;;16.70;44.70;;;;;;5045585;28;20071;-78
2022/04/15 12:01:37;;;;;;;6.03;1.20;;;16.70;44.60;;;;;;5046198;28;20051;-79
2022/04/15 12:04:05;;;;;;;6.22;1.70;;;16.70;45.30;;;;;;5064226;28;20041;-77
2022/04/15 12:06:31;;;;;;;2.63;1.08;;;16.70;44.70;;;;;;5048673;28;20050;-78
2022/04/15 12:08:58;;;;;;;4.47;1.30;;;16.60;44.80;;;;;;5065550;28;20115;-79
2022/04/15 12:11:26;;;;;;;6.85;1.40;;;16.60;44.80;;;;;;5047224;28;20438;-77
2022/04/15 12:13:57;;;;;;;2.28;1.20;;;16.60;45.40;;;;;;5065406;28;20040;-77
2022/04/15 12:16:23;;;;;;;6.70;1.45;;;16.60;45.40;;;;;;5065195;28;20039;-77
2022/04/15 12:18:52;;;;;;;3.88;1.40;;;16.70;45.10;;;;;;5061208;28;20466;-77
2022/04/15 12:21:18;;;;;;;2.67;1.58;;;16.70;45.00;;;;;;5066289;28;20037;-76
2022/04/15 12:24:02;;;;;;;4.40;1.77;;;16.60;45.00;;;;;;5065897;28;20071;-77
2022/04/15 12:26:39;;;;;;;5.93;1.73;;;16.60;45.00;;;;;;5065065;28;20590;-77
2022/04/15 12:31:49;;;;;;;2.55;1.80;;;16.60;44.80;;;;;;5064294;28;20642;-76
2022/04/15 12:34:16;;;;;;;2.97;1.38;;;16.60;44.70;;;;;;5064749;28;20128;-76
2022/04/15 12:36:45;;;;;;;3.10;1.55;;;16.60;44.50;;;;;;5065567;28;20041;-75
2022/04/15 12:39:13;;;;;;;5.57;1.80;;;16.50;44.50;;;;;;5064357;28;20036;-76
2022/04/15 12:41:45;;;;;;;6.28;1.95;;;16.50;44.40;;;;;;5065058;28;20029;-78
2022/04/15 12:44:30;;;;;;;5.30;1.75;;;16.50;44.50;;;;;;5065217;28;20033;-77
2022/04/15 12:47:00;;;;;;;6.35;1.70;;;16.50;44.50;;;;;;5064640;28;20534;-76
2022/04/15 12:49:35;;;;;;;2.25;1.40;;;16.50;44.50;;;;;;5064652;28;20033;-76
2022/04/15 12:52:18;;;;;;;3.00;1.80;;;16.50;44.40;;;;;;5061659;28;20518;-76
2022/04/15 12:55:05;;;;;;;3.38;1.55;;;16.40;44.40;;;;;;5063859;28;20093;-76